createdAt,value
2017-09-04T00:01:56.449Z,8.40
2017-09-04T00:04:24.004Z,8.30
2017-09-04T00:06:51.548Z,8.30
2017-09-04T00:09:19.089Z,8.40
2017-09-04T00:11:46.621Z,8.40
2017-09-04T00:14:14.547Z,8.40
2017-09-04T00:16:42.077Z,8.40
2017-09-04T00:19:09.658Z,8.40
2017-09-04T00:21:37.193Z,8.40
2017-09-04T00:24:04.725Z,8.40
2017-09-04T00:26:32.285Z,8.40
2017-09-04T00:28:59.826Z,8.30
2017-09-04T00:31:27.358Z,8.40
2017-09-04T00:33:54.922Z,8.30
2017-09-04T00:36:22.463Z,8.30
2017-09-04T00:38:50.021Z,8.30
2017-09-04T00:41:17.547Z,8.30
2017-09-04T00:43:45.100Z,8.30
2017-09-04T00:46:12.656Z,8.30
2017-09-04T00:48:40.196Z,8.30
2017-09-04T00:51:07.759Z,8.30
2017-09-04T00:53:35.333Z,8.20
2017-09-04T00:56:03.204Z,8.20
2017-09-04T00:58:30.747Z,8.10
2017-09-04T01:00:58.303Z,8.10
2017-09-04T01:03:25.846Z,8.00
2017-09-04T01:05:53.426Z,8.00
2017-09-04T01:08:21.003Z,8.00
2017-09-04T01:10:48.560Z,8.00
2017-09-04T01:13:16.534Z,8.00
2017-09-04T01:15:44.111Z,8.00
2017-09-04T01:18:11.652Z,8.00
2017-09-04T01:20:39.215Z,8.00
2017-09-04T01:23:06.779Z,8.00
2017-09-04T01:25:34.365Z,7.90
2017-09-04T01:28:01.897Z,8.00
2017-09-04T01:30:29.953Z,7.90
2017-09-04T01:32:57.942Z,7.90
2017-09-04T01:35:25.504Z,7.90
2017-09-04T01:37:53.054Z,7.80
2017-09-04T01:40:20.590Z,7.70
2017-09-04T01:42:48.172Z,7.60
2017-09-04T01:45:15.810Z,7.50
2017-09-04T01:47:43.674Z,7.50
2017-09-04T01:50:11.241Z,7.40
2017-09-04T01:52:38.768Z,7.40
2017-09-04T01:55:06.366Z,7.50
2017-09-04T01:57:33.894Z,7.40
2017-09-04T02:00:01.455Z,7.30
2017-09-04T02:02:28.978Z,7.30
2017-09-04T02:04:56.876Z,7.30
2017-09-04T02:07:24.433Z,7.20
2017-09-04T02:09:51.978Z,7.20
2017-09-04T02:12:19.980Z,7.30
2017-09-04T02:14:47.538Z,7.30
2017-09-04T02:17:15.073Z,7.30
2017-09-04T02:19:42.617Z,7.30
2017-09-04T02:22:10.152Z,7.20
2017-09-04T02:24:37.697Z,7.30
2017-09-04T02:27:05.254Z,7.30
2017-09-04T02:29:33.070Z,7.20
2017-09-04T02:32:00.596Z,7.20
2017-09-04T02:34:28.134Z,7.20
2017-09-04T02:36:55.690Z,7.20
2017-09-04T02:39:23.217Z,7.30
2017-09-04T02:41:50.746Z,7.20
2017-09-04T02:44:18.290Z,7.20
2017-09-04T02:46:45.825Z,7.20
2017-09-04T02:49:13.373Z,7.20
2017-09-04T02:51:40.913Z,7.30
2017-09-04T02:54:08.468Z,7.30
2017-09-04T02:56:36.035Z,7.30
2017-09-04T02:59:04.386Z,7.30
2017-09-04T03:01:31.934Z,7.50
2017-09-04T03:03:59.501Z,7.30
2017-09-04T03:06:27.077Z,7.30
2017-09-04T03:08:54.613Z,7.30
2017-09-04T03:11:22.176Z,7.20
2017-09-04T03:13:49.742Z,7.10
2017-09-04T03:16:17.322Z,7.00
2017-09-04T03:18:44.873Z,7.10
2017-09-04T03:21:12.409Z,7.00
2017-09-04T03:23:39.963Z,7.00
2017-09-04T03:26:07.508Z,7.10
2017-09-04T03:28:35.059Z,7.10
2017-09-04T03:31:02.617Z,7.10
2017-09-04T03:33:30.288Z,7.00
2017-09-04T03:35:57.964Z,7.10
2017-09-04T03:38:25.524Z,7.10
2017-09-04T03:40:53.111Z,7.00
2017-09-04T03:43:20.649Z,7.10
2017-09-04T03:45:48.203Z,7.10
2017-09-04T03:48:15.783Z,7.10
2017-09-04T03:50:43.593Z,7.20
2017-09-04T03:53:11.156Z,7.20
2017-09-04T03:55:38.698Z,7.30
2017-09-04T03:58:06.265Z,7.30
2017-09-04T04:00:33.807Z,7.20
2017-09-04T04:03:01.360Z,7.20
2017-09-04T04:05:28.895Z,7.10
2017-09-04T04:07:56.763Z,7.00
2017-09-04T04:10:24.304Z,7.10
2017-09-04T04:12:51.852Z,7.10
2017-09-04T04:15:19.393Z,7.10
2017-09-04T04:17:46.928Z,7.20
2017-09-04T04:20:14.492Z,7.20
2017-09-04T04:22:42.043Z,7.20
2017-09-04T04:25:09.872Z,7.30
2017-09-04T04:27:37.410Z,7.30
2017-09-04T04:30:04.936Z,7.30
2017-09-04T04:32:32.506Z,7.30
2017-09-04T04:35:00.050Z,7.20
2017-09-04T04:37:27.617Z,7.10
2017-09-04T04:39:55.152Z,7.00
2017-09-04T04:42:23.129Z,6.90
2017-09-04T04:44:50.696Z,6.90
2017-09-04T04:47:18.230Z,6.80
2017-09-04T04:49:45.782Z,6.80
2017-09-04T04:52:13.352Z,6.80
2017-09-04T04:54:40.919Z,6.70
2017-09-04T04:57:08.438Z,6.80
2017-09-04T04:59:36.446Z,6.80
2017-09-04T05:02:03.971Z,6.80
2017-09-04T05:04:31.532Z,6.80
2017-09-04T05:06:59.096Z,6.90
2017-09-04T05:09:26.618Z,6.90
2017-09-04T05:11:54.169Z,6.90
2017-09-04T05:14:21.698Z,7.00
2017-09-04T05:16:49.258Z,7.00
2017-09-04T05:19:16.800Z,6.90
2017-09-04T05:21:44.354Z,6.90
2017-09-04T05:24:11.931Z,6.90
2017-09-04T05:26:42.749Z,6.90
2017-09-04T05:29:10.629Z,6.90
2017-09-04T05:31:38.222Z,7.00
2017-09-04T05:34:06.198Z,6.90
2017-09-04T05:36:33.746Z,7.00
2017-09-04T05:39:02.215Z,7.10
2017-09-04T05:41:29.974Z,7.10
2017-09-04T05:43:57.573Z,7.20
2017-09-04T05:46:26.174Z,7.40
2017-09-04T05:48:53.750Z,7.50
2017-09-04T05:51:21.295Z,7.40
2017-09-04T05:53:48.877Z,7.50
2017-09-04T05:56:16.412Z,7.50
2017-09-04T05:58:43.973Z,7.60
2017-09-04T06:01:11.543Z,7.60
2017-09-04T06:03:39.113Z,7.60
2017-09-04T06:06:06.661Z,7.70
2017-09-04T06:08:34.210Z,7.80
2017-09-04T06:11:01.769Z,7.80
2017-09-04T06:13:30.069Z,7.90
2017-09-04T06:15:57.623Z,7.90
2017-09-04T06:18:25.168Z,7.90
2017-09-04T06:20:52.722Z,8.00
2017-09-04T06:23:20.261Z,8.10
2017-09-04T06:25:47.804Z,8.30
2017-09-04T06:28:15.362Z,8.20
2017-09-04T06:30:42.894Z,8.40
2017-09-04T06:33:10.442Z,8.70
2017-09-04T06:35:37.970Z,8.80
2017-09-04T06:38:05.524Z,9.20
2017-09-04T06:40:33.069Z,9.90
2017-09-04T06:43:01.391Z,11.50
2017-09-04T06:45:28.945Z,11.40
2017-09-04T06:47:56.511Z,12.20
2017-09-04T06:50:24.085Z,12.90
2017-09-04T06:52:51.652Z,13.60
2017-09-04T06:55:19.267Z,14.10
2017-09-04T06:57:46.818Z,14.70
2017-09-04T07:00:14.372Z,15.10
2017-09-04T07:02:41.936Z,15.30
2017-09-04T07:05:11.471Z,14.80
2017-09-04T07:07:39.319Z,14.90
2017-09-04T07:10:08.055Z,15.40
2017-09-04T07:12:35.947Z,15.80
2017-09-04T07:15:04.493Z,16.00
2017-09-04T07:17:32.148Z,16.00
2017-09-04T07:19:59.705Z,16.10
2017-09-04T07:22:27.249Z,16.30
2017-09-04T07:24:54.806Z,16.30
2017-09-04T07:27:22.347Z,16.10
2017-09-04T07:29:50.170Z,15.80
2017-09-04T07:32:17.741Z,15.60
2017-09-04T07:34:45.337Z,15.40
2017-09-04T07:37:12.916Z,15.30
2017-09-04T07:39:40.499Z,15.20
2017-09-04T07:42:08.069Z,15.00
2017-09-04T07:44:35.637Z,15.00
2017-09-04T07:47:03.197Z,14.80
2017-09-04T07:49:30.774Z,14.90
2017-09-04T07:51:58.325Z,15.10
2017-09-04T07:54:25.882Z,15.20
2017-09-04T07:56:53.433Z,15.40
2017-09-04T07:59:20.993Z,15.50
2017-09-04T08:01:48.544Z,15.60
2017-09-04T08:04:16.489Z,15.60
2017-09-04T08:06:44.033Z,15.60
2017-09-04T08:09:11.576Z,15.50
2017-09-04T08:11:39.138Z,15.40
2017-09-04T08:14:06.695Z,15.20
2017-09-04T08:16:34.538Z,15.10
2017-09-04T08:19:02.076Z,15.00
2017-09-04T08:21:29.638Z,14.90
2017-09-04T08:23:57.216Z,14.90
2017-09-04T08:26:24.751Z,15.10
2017-09-04T08:28:52.718Z,15.20
2017-09-04T08:31:20.248Z,15.30
2017-09-04T08:33:47.794Z,15.40
2017-09-04T08:36:15.339Z,15.70
2017-09-04T08:38:42.883Z,16.10
2017-09-04T08:41:10.437Z,16.20
2017-09-04T08:43:37.970Z,16.50
2017-09-04T08:46:05.811Z,16.70
2017-09-04T08:48:33.372Z,16.90
2017-09-04T08:51:00.932Z,17.20
2017-09-04T08:53:28.476Z,17.40
2017-09-04T08:55:56.085Z,17.70
2017-09-04T08:58:23.959Z,17.90
2017-09-04T09:00:51.539Z,17.90
2017-09-04T09:03:19.100Z,18.10
2017-09-04T09:05:46.788Z,18.40
2017-09-04T09:08:14.381Z,18.70
2017-09-04T09:10:41.942Z,19.10
2017-09-04T09:13:09.505Z,19.40
2017-09-04T09:15:37.460Z,19.50
2017-09-04T09:18:05.023Z,19.70
2017-09-04T09:20:32.596Z,19.80
2017-09-04T09:23:10.615Z,19.80
2017-09-04T09:25:38.201Z,19.70
2017-09-04T09:28:05.823Z,19.90
2017-09-04T09:30:33.367Z,20.00
2017-09-04T09:33:01.206Z,19.80
2017-09-04T09:35:28.760Z,19.70
2017-09-04T09:37:56.318Z,19.40
2017-09-04T09:40:23.878Z,19.30
2017-09-04T09:42:51.445Z,19.30
2017-09-04T09:45:18.999Z,19.30
2017-09-04T09:47:46.534Z,19.30
2017-09-04T09:50:14.447Z,19.40
2017-09-04T09:52:43.771Z,19.60
2017-09-04T09:55:11.305Z,19.90
2017-09-04T09:57:38.869Z,20.20
2017-09-04T10:00:08.750Z,20.50
2017-09-04T10:02:36.314Z,20.50
2017-09-04T10:05:03.908Z,20.60
2017-09-04T10:07:31.745Z,20.70
2017-09-04T10:09:59.306Z,20.70
2017-09-04T10:12:26.854Z,20.60
2017-09-04T10:14:54.424Z,20.40
2017-09-04T10:17:21.975Z,20.40
2017-09-04T10:19:49.823Z,20.30
2017-09-04T10:22:20.893Z,20.20
2017-09-04T10:24:49.344Z,20.20
2017-09-04T10:27:17.705Z,20.30
2017-09-04T10:29:45.249Z,20.30
2017-09-04T10:32:12.807Z,20.30
2017-09-04T10:34:40.354Z,20.10
2017-09-04T10:37:11.320Z,19.70
2017-09-04T10:39:45.415Z,19.80
2017-09-04T10:42:13.270Z,19.70
2017-09-04T10:44:40.846Z,19.80
2017-09-04T10:47:08.394Z,19.90
2017-09-04T10:49:35.958Z,20.00
2017-09-04T10:52:03.506Z,20.00
2017-09-04T10:54:31.130Z,20.00
2017-09-04T10:56:58.672Z,20.00
2017-09-04T10:59:26.488Z,20.10
2017-09-04T11:01:54.058Z,20.10
2017-09-04T11:04:21.619Z,20.30
2017-09-04T11:06:49.215Z,20.40
2017-09-04T11:09:17.406Z,20.40
2017-09-04T11:11:44.979Z,20.20
2017-09-04T11:14:12.540Z,20.10
2017-09-04T11:16:40.174Z,20.10
2017-09-04T11:19:07.782Z,20.00
2017-09-04T11:21:35.381Z,19.90
2017-09-04T11:24:02.999Z,19.90
2017-09-04T11:26:30.566Z,19.90
2017-09-04T11:28:58.175Z,19.90
2017-09-04T11:31:25.806Z,19.80
2017-09-04T11:33:54.157Z,19.60
2017-09-04T11:36:21.743Z,19.60
2017-09-04T11:38:53.521Z,19.60
2017-09-04T11:41:21.878Z,19.60
2017-09-04T11:43:49.441Z,19.60
2017-09-04T11:46:17.047Z,19.70
2017-09-04T11:48:44.755Z,19.80
2017-09-04T11:51:12.460Z,19.70
2017-09-04T11:53:40.014Z,19.60
2017-09-04T11:56:08.346Z,19.40
2017-09-04T11:58:35.922Z,19.40
2017-09-04T12:01:03.506Z,19.10
2017-09-04T12:03:31.843Z,19.30
2017-09-04T12:05:59.401Z,19.20
2017-09-04T12:08:26.981Z,19.30
2017-09-04T12:10:56.521Z,19.50
2017-09-04T12:13:24.085Z,19.50
2017-09-04T12:15:51.681Z,19.80
2017-09-04T12:18:19.696Z,20.00
2017-09-04T12:20:47.574Z,20.20
2017-09-04T12:23:15.150Z,20.50
2017-09-04T12:25:42.733Z,20.50
2017-09-04T12:28:10.334Z,20.40
2017-09-04T12:30:38.047Z,20.30
2017-09-04T12:33:05.665Z,20.20
2017-09-04T12:35:33.237Z,20.20
2017-09-04T12:38:01.090Z,20.20
2017-09-04T12:40:29.494Z,20.40
2017-09-04T12:42:57.052Z,20.30
2017-09-04T12:45:24.603Z,20.30
2017-09-04T12:47:52.196Z,20.50
2017-09-04T12:50:19.801Z,20.40
2017-09-04T12:52:47.342Z,20.40
2017-09-04T12:55:15.802Z,20.30
2017-09-04T12:57:43.380Z,20.30
2017-09-04T13:00:10.921Z,20.40
2017-09-04T13:02:38.485Z,20.30
2017-09-04T13:05:06.036Z,20.20
2017-09-04T13:07:39.325Z,20.10
2017-09-04T13:10:12.437Z,20.10
2017-09-04T13:12:40.142Z,20.00
2017-09-04T13:15:13.242Z,19.80
2017-09-04T13:20:48.741Z,19.90
2017-09-04T13:37:15.235Z,20.50
2017-09-04T13:39:48.729Z,20.40
2017-09-04T13:42:22.101Z,20.40
2017-09-04T13:44:55.316Z,20.20
2017-09-04T13:47:22.860Z,20.20
2017-09-04T13:49:56.740Z,20.00
2017-09-04T13:52:29.847Z,20.00
2017-09-04T13:55:03.059Z,19.90
2017-09-04T13:57:36.364Z,19.80
2017-09-04T14:00:09.547Z,19.60
2017-09-04T14:05:59.097Z,19.40
2017-09-04T14:08:32.319Z,19.20
2017-09-04T14:11:19.374Z,19.20
2017-09-04T14:13:52.663Z,19.20
2017-09-04T14:29:42.663Z,18.60
2017-09-04T14:32:10.223Z,18.50
2017-09-04T14:34:37.992Z,18.40
2017-09-04T14:37:05.544Z,18.30
2017-09-04T14:39:33.847Z,22.10
2017-09-04T14:42:01.546Z,18.50
2017-09-04T14:44:30.027Z,18.60
2017-09-04T14:47:10.448Z,18.70
2017-09-04T14:49:38.009Z,18.70
2017-09-04T14:52:06.452Z,18.50
2017-09-04T14:54:34.867Z,18.50
2017-09-04T14:57:02.511Z,18.30
2017-09-04T14:59:30.063Z,18.40
2017-09-04T15:01:57.959Z,18.40
2017-09-04T15:04:25.574Z,18.30
2017-09-04T15:06:53.189Z,18.10
2017-09-04T15:09:21.549Z,17.70
2017-09-04T15:11:49.216Z,17.40
2017-09-04T15:14:16.785Z,17.30
2017-09-04T15:16:47.188Z,17.10
2017-09-04T15:19:14.777Z,17.10
2017-09-04T15:21:42.331Z,17.10
2017-09-04T15:24:09.937Z,17.10
2017-09-04T15:26:37.494Z,17.10
2017-09-04T15:29:05.019Z,17.10
2017-09-04T15:31:33.373Z,17.10
2017-09-04T15:34:01.727Z,16.70
2017-09-04T15:36:29.345Z,17.10
2017-09-04T15:38:56.918Z,17.10
2017-09-04T15:41:24.457Z,17.10
2017-09-04T15:43:52.155Z,17.20
2017-09-04T15:46:19.718Z,17.20
2017-09-04T15:48:47.587Z,17.20
2017-09-04T15:51:15.822Z,17.30
2017-09-04T15:53:43.473Z,17.40
2017-09-04T15:56:11.081Z,17.30
2017-09-04T15:58:38.633Z,17.40
2017-09-04T16:01:06.481Z,17.40
2017-09-04T16:03:34.027Z,17.40
2017-09-04T16:06:06.994Z,17.50
2017-09-04T16:08:34.625Z,17.50
2017-09-04T16:11:02.655Z,17.60
2017-09-04T16:13:34.837Z,17.60
2017-09-04T16:16:02.993Z,17.70
2017-09-04T16:18:34.179Z,17.60
2017-09-04T16:21:02.645Z,17.70
2017-09-04T16:36:59.683Z,17.40
2017-09-04T16:39:43.149Z,17.40
2017-09-04T16:42:32.529Z,17.30
2017-09-04T16:45:02.010Z,17.10
2017-09-04T16:47:41.225Z,17.10
2017-09-04T16:50:10.414Z,17.10
2017-09-04T17:06:00.771Z,17.10
2017-09-04T17:08:30.887Z,16.80
2017-09-04T17:11:15.134Z,16.80
2017-09-04T17:13:43.440Z,16.70
2017-09-04T17:16:27.701Z,16.70
2017-09-04T17:19:10.113Z,16.60
2017-09-04T17:21:38.916Z,16.60
2017-09-04T17:24:07.427Z,16.60
2017-09-04T17:26:36.120Z,16.50
2017-09-04T17:29:04.282Z,16.50
2017-09-04T17:31:31.864Z,16.40
2017-09-04T17:34:00.207Z,16.20
2017-09-04T17:36:27.793Z,16.30
2017-09-04T17:38:55.366Z,16.20
2017-09-04T17:41:22.930Z,16.20
2017-09-04T17:43:50.506Z,16.10
2017-09-04T17:46:18.066Z,16.10
2017-09-04T17:48:45.899Z,16.10
2017-09-04T17:51:13.629Z,16.00
2017-09-04T17:53:41.190Z,16.10
2017-09-04T17:56:36.831Z,16.00
2017-09-04T17:59:04.465Z,16.00
2017-09-04T18:01:32.039Z,16.00
2017-09-04T18:03:59.595Z,16.00
2017-09-04T18:06:27.150Z,16.00
2017-09-04T18:08:54.704Z,16.00
2017-09-04T18:11:22.889Z,16.00
2017-09-04T18:13:50.452Z,16.00
2017-09-04T18:16:20.397Z,16.00
2017-09-04T18:18:48.047Z,15.90
2017-09-04T18:21:15.632Z,15.90
2017-09-04T18:23:43.203Z,15.90
2017-09-04T18:26:10.754Z,15.90
2017-09-04T18:28:38.308Z,15.80
2017-09-04T18:31:06.298Z,15.90
2017-09-04T18:33:33.851Z,15.80
2017-09-04T18:36:01.419Z,15.80
2017-09-04T18:38:28.998Z,15.80
2017-09-04T18:41:01.925Z,15.60
2017-09-04T18:43:29.499Z,15.70
2017-09-04T18:45:57.098Z,15.70
2017-09-04T18:48:24.677Z,15.80
2017-09-04T18:50:52.337Z,15.80
2017-09-04T18:53:19.888Z,15.80
2017-09-04T18:55:47.538Z,17.10
2017-09-04T18:58:15.134Z,15.90
2017-09-04T19:00:42.730Z,15.80
2017-09-04T19:03:10.309Z,15.80
2017-09-04T19:05:37.960Z,15.80
2017-09-04T19:08:05.521Z,15.80
2017-09-04T19:10:33.103Z,15.80
2017-09-04T19:13:00.736Z,15.80
2017-09-04T19:15:28.333Z,15.80
2017-09-04T19:17:56.696Z,15.90
2017-09-04T19:20:24.313Z,15.90
2017-09-04T19:22:51.942Z,16.00
2017-09-04T19:25:19.503Z,15.90
2017-09-04T19:27:47.150Z,15.90
2017-09-04T19:30:14.780Z,15.90
2017-09-04T19:32:42.338Z,15.90
2017-09-04T19:35:09.921Z,15.90
2017-09-04T19:37:38.270Z,16.00
2017-09-04T19:40:06.194Z,15.80
2017-09-04T19:42:33.739Z,15.80
2017-09-04T19:45:01.325Z,19.50
2017-09-04T19:47:28.901Z,15.70
2017-09-04T19:49:56.482Z,15.70
2017-09-04T19:52:24.106Z,15.70
2017-09-04T19:54:51.660Z,15.60
2017-09-04T19:57:19.265Z,15.70
2017-09-04T19:59:46.839Z,15.60
2017-09-04T20:02:14.719Z,15.60
2017-09-04T20:04:42.264Z,15.50
2017-09-04T20:07:09.843Z,15.50
2017-09-04T20:09:37.677Z,15.50
2017-09-04T20:12:06.013Z,15.50
2017-09-04T20:14:33.980Z,15.40
2017-09-04T20:17:02.082Z,15.40
2017-09-04T20:19:30.045Z,15.40
2017-09-04T20:21:58.708Z,15.40
2017-09-04T20:24:26.692Z,15.30
2017-09-04T20:26:54.812Z,15.30
2017-09-04T20:29:22.387Z,15.30
2017-09-04T20:31:50.385Z,15.30
2017-09-04T20:34:17.973Z,15.30
2017-09-04T20:36:45.557Z,15.20
2017-09-04T20:39:13.114Z,15.20
2017-09-04T20:41:40.950Z,15.30
2017-09-04T20:44:08.494Z,15.20
2017-09-04T20:46:36.097Z,15.20
2017-09-04T20:49:03.651Z,15.20
2017-09-04T20:51:31.232Z,15.20
2017-09-04T20:53:58.826Z,15.30
2017-09-04T20:56:26.381Z,15.30
2017-09-04T20:58:53.948Z,15.30
2017-09-04T21:01:21.486Z,15.30
2017-09-04T21:03:49.024Z,15.30
2017-09-04T21:06:16.620Z,15.30
2017-09-04T21:08:44.948Z,15.20
2017-09-04T21:11:12.544Z,15.20
2017-09-04T21:13:40.091Z,15.20
2017-09-04T21:16:07.639Z,15.20
2017-09-04T21:18:35.601Z,15.20
2017-09-04T21:21:04.010Z,15.10
2017-09-04T21:23:32.366Z,15.10
2017-09-04T21:25:59.896Z,15.10
2017-09-04T21:28:27.469Z,15.10
2017-09-04T21:30:55.027Z,15.10
2017-09-04T21:33:22.858Z,15.10
2017-09-04T21:35:50.412Z,15.00
2017-09-04T21:38:17.973Z,14.90
2017-09-04T21:40:45.533Z,14.80
2017-09-04T21:43:13.078Z,14.70
2017-09-04T21:45:40.643Z,14.60
2017-09-04T21:48:08.190Z,14.50
2017-09-04T21:50:36.035Z,14.50
2017-09-04T21:53:03.570Z,14.40
2017-09-04T21:55:31.133Z,14.40
2017-09-04T21:57:58.672Z,14.40
2017-09-04T22:00:26.210Z,14.40
2017-09-04T22:02:53.767Z,14.40
2017-09-04T22:05:21.327Z,14.40
2017-09-04T22:07:48.927Z,14.50
2017-09-04T22:10:16.487Z,14.40
2017-09-04T22:12:44.396Z,14.40
2017-09-04T22:15:11.947Z,14.40
2017-09-04T22:17:39.491Z,14.40
2017-09-04T22:20:07.059Z,14.50
2017-09-04T22:22:34.613Z,14.50
2017-09-04T22:25:02.507Z,14.50
2017-09-04T22:27:30.074Z,14.40
2017-09-04T22:29:57.637Z,14.50
2017-09-04T22:32:25.197Z,14.40
2017-09-04T22:34:52.790Z,14.30
2017-09-04T22:37:20.334Z,14.30
2017-09-04T22:39:47.901Z,14.30
2017-09-04T22:42:15.475Z,14.30
2017-09-04T22:44:43.036Z,14.30
2017-09-04T22:47:10.589Z,14.30
2017-09-04T22:49:38.157Z,14.20
2017-09-04T22:52:05.705Z,14.20
2017-09-04T22:54:33.262Z,14.30
2017-09-04T22:57:00.803Z,14.30
2017-09-04T22:59:30.745Z,14.30
2017-09-04T23:01:58.282Z,14.30
2017-09-04T23:04:25.835Z,14.20
2017-09-04T23:06:55.115Z,14.20
2017-09-04T23:09:22.692Z,14.20
2017-09-04T23:11:50.246Z,14.20
2017-09-04T23:14:17.778Z,14.20
2017-09-04T23:16:45.326Z,14.20
2017-09-04T23:19:15.770Z,14.20
2017-09-04T23:21:43.401Z,14.20
2017-09-04T23:24:10.951Z,14.20
2017-09-04T23:26:38.477Z,14.20
2017-09-04T23:29:06.027Z,14.20
2017-09-04T23:31:33.583Z,14.30
2017-09-04T23:34:01.120Z,14.30
2017-09-04T23:36:30.293Z,14.30
2017-09-04T23:38:57.819Z,14.30
2017-09-04T23:41:25.398Z,14.30
2017-09-04T23:43:52.966Z,14.30
2017-09-04T23:46:20.497Z,14.40
2017-09-04T23:48:48.045Z,14.40
2017-09-04T23:51:16.355Z,14.40
2017-09-04T23:53:43.902Z,14.40
2017-09-04T23:56:11.440Z,14.50
2017-09-04T23:58:38.991Z,14.50
